sensor_id;sensor_type;location;lat;lon;timestamp;temperature;humidity
78775;DHT22;68119;43.398;3.676;2023-08-31T02:04:00;18.20;71.50
78775;DHT22;68119;43.398;3.676;2023-08-31T02:06:28;17.90;71.60
78775;DHT22;68119;43.398;3.676;2023-08-31T02:09:00;18.00;71.50
78775;DHT22;68119;43.398;3.676;2023-08-31T02:11:28;18.00;71.20
78775;DHT22;68119;43.398;3.676;2023-08-31T02:13:54;18.00;71.50
78775;DHT22;68119;43.398;3.676;2023-08-31T02:16:23;18.00;71.30
78775;DHT22;68119;43.398;3.676;2023-08-31T02:18:51;18.00;71.50
78775;DHT22;68119;43.398;3.676;2023-08-31T02:21:20;18.00;71.50
78775;DHT22;68119;43.398;3.676;2023-08-31T02:23:51;18.00;71.30
78775;DHT22;68119;43.398;3.676;2023-08-31T02:26:17;18.00;71.30
78775;DHT22;68119;43.398;3.676;2023-08-31T02:28:46;18.00;71.20
78775;DHT22;68119;43.398;3.676;2023-08-31T02:31:16;18.00;71.10
78775;DHT22;68119;43.398;3.676;2023-08-31T02:33:48;18.00;70.80
78775;DHT22;68119;43.398;3.676;2023-08-31T02:36:18;18.00;70.80
78775;DHT22;68119;43.398;3.676;2023-08-31T02:38:46;18.00;70.80
78775;DHT22;68119;43.398;3.676;2023-08-31T02:41:14;17.90;70.80
78775;DHT22;68119;43.398;3.676;2023-08-31T02:43:43;17.90;70.80
78775;DHT22;68119;43.398;3.676;2023-08-31T02:46:15;18.00;71.00
78775;DHT22;68119;43.398;3.676;2023-08-31T02:48:41;18.00;71.00
78775;DHT22;68119;43.398;3.676;2023-08-31T02:51:10;18.00;70.70
78775;DHT22;68119;43.398;3.676;2023-08-31T02:53:41;17.90;70.90
78775;DHT22;68119;43.398;3.676;2023-08-31T02:56:07;18.00;70.90
78775;DHT22;68119;43.398;3.676;2023-08-31T02:58:38;18.00;70.90
78775;DHT22;68119;43.398;3.676;2023-08-31T03:01:10;18.00;70.70
78775;DHT22;68119;43.398;3.676;2023-08-31T03:03:44;18.00;70.60
78775;DHT22;68119;43.398;3.676;2023-08-31T03:06:14;17.90;70.70
78775;DHT22;68119;43.398;3.676;2023-08-31T03:08:45;17.80;70.90
78775;DHT22;68119;43.398;3.676;2023-08-31T03:11:13;17.80;70.80
78775;DHT22;68119;43.398;3.676;2023-08-31T03:13:45;17.80;70.50
78775;DHT22;68119;43.398;3.676;2023-08-31T03:16:19;17.80;70.40
78775;DHT22;68119;43.398;3.676;2023-08-31T03:18:45;17.80;70.50
78775;DHT22;68119;43.398;3.676;2023-08-31T03:21:11;17.70;70.60
78775;DHT22;68119;43.398;3.676;2023-08-31T03:23:42;17.80;70.60
78775;DHT22;68119;43.398;3.676;2023-08-31T03:26:11;17.80;70.40
78775;DHT22;68119;43.398;3.676;2023-08-31T03:28:42;17.80;70.00
78775;DHT22;68119;43.398;3.676;2023-08-31T03:31:14;17.80;70.00
78775;DHT22;68119;43.398;3.676;2023-08-31T03:33:45;17.80;70.00
78775;DHT22;68119;43.398;3.676;2023-08-31T03:36:14;17.80;69.90
78775;DHT22;68119;43.398;3.676;2023-08-31T03:38:44;17.80;69.90
78775;DHT22;68119;43.398;3.676;2023-08-31T03:41:13;17.80;69.60
78775;DHT22;68119;43.398;3.676;2023-08-31T03:43:44;17.80;69.60
78775;DHT22;68119;43.398;3.676;2023-08-31T03:46:10;17.80;69.70
78775;DHT22;68119;43.398;3.676;2023-08-31T03:48:40;17.80;69.90
78775;DHT22;68119;43.398;3.676;2023-08-31T03:51:09;17.80;70.00
78775;DHT22;68119;43.398;3.676;2023-08-31T03:53:43;17.80;69.90
78775;DHT22;68119;43.398;3.676;2023-08-31T03:56:14;17.80;69.70
78775;DHT22;68119;43.398;3.676;2023-08-31T03:58:45;17.80;69.40
78775;DHT22;68119;43.398;3.676;2023-08-31T04:01:14;17.80;69.50
78775;DHT22;68119;43.398;3.676;2023-08-31T04:03:43;17.70;69.50
78775;DHT22;68119;43.398;3.676;2023-08-31T04:06:17;17.60;69.70
78775;DHT22;68119;43.398;3.676;2023-08-31T04:08:43;17.60;69.80
78775;DHT22;68119;43.398;3.676;2023-08-31T04:11:22;17.50;69.90
78775;DHT22;68119;43.398;3.676;2023-08-31T04:13:54;17.50;69.90
78775;DHT22;68119;43.398;3.676;2023-08-31T04:16:22;17.50;70.10
78775;DHT22;68119;43.398;3.676;2023-08-31T04:18:51;17.50;70.00
78775;DHT22;68119;43.398;3.676;2023-08-31T04:21:19;17.50;70.10
78775;DHT22;68119;43.398;3.676;2023-08-31T04:23:50;17.50;70.20
78775;DHT22;68119;43.398;3.676;2023-08-31T04:26:22;17.50;70.30
78775;DHT22;68119;43.398;3.676;2023-08-31T04:28:54;17.50;70.40
78775;DHT22;68119;43.398;3.676;2023-08-31T04:31:22;17.50;70.50
78775;DHT22;68119;43.398;3.676;2023-08-31T04:33:51;17.50;70.70
78775;DHT22;68119;43.398;3.676;2023-08-31T04:36:22;17.50;70.80
78775;DHT22;68119;43.398;3.676;2023-08-31T04:38:53;17.40;71.00
78775;DHT22;68119;43.398;3.676;2023-08-31T04:41:27;17.40;70.50
78775;DHT22;68119;43.398;3.676;2023-08-31T04:43:59;17.50;70.10
78775;DHT22;68119;43.398;3.676;2023-08-31T04:46:27;17.40;70.10
78775;DHT22;68119;43.398;3.676;2023-08-31T04:48:59;17.50;69.80
78775;DHT22;68119;43.398;3.676;2023-08-31T10:59:06;38.80;27.90
78775;DHT22;68119;43.398;3.676;2023-08-31T11:01:54;37.60;28.60
78775;DHT22;68119;43.398;3.676;2023-08-31T11:04:23;38.50;28.30
78775;DHT22;68119;43.398;3.676;2023-08-31T11:19:29;40.60;26.90
78775;DHT22;68119;43.398;3.676;2023-08-31T11:22:01;38.90;27.90
78775;DHT22;68119;43.398;3.676;2023-08-31T11:24:32;39.90;27.50
78775;DHT22;68119;43.398;3.676;2023-08-31T11:27:07;40.90;26.40
78775;DHT22;68119;43.398;3.676;2023-08-31T11:29:36;40.20;26.40
78775;DHT22;68119;43.398;3.676;2023-08-31T11:32:02;39.50;27.00
78775;DHT22;68119;43.398;3.676;2023-08-31T11:34:28;38.50;27.70
78775;DHT22;68119;43.398;3.676;2023-08-31T11:37:01;37.30;28.20
78775;DHT22;68119;43.398;3.676;2023-08-31T11:39:33;36.50;28.70
78775;DHT22;68119;43.398;3.676;2023-08-31T11:41:59;38.00;27.70
78775;DHT22;68119;43.398;3.676;2023-08-31T11:44:29;39.30;26.90
78775;DHT22;68119;43.398;3.676;2023-08-31T11:46:58;37.30;27.80
78775;DHT22;68119;43.398;3.676;2023-08-31T11:49:27;35.50;29.10
78775;DHT22;68119;43.398;3.676;2023-08-31T11:51:53;35.90;29.30
78775;DHT22;68119;43.398;3.676;2023-08-31T11:54:20;37.50;28.30
78775;DHT22;68119;43.398;3.676;2023-08-31T11:56:48;37.70;27.70
78775;DHT22;68119;43.398;3.676;2023-08-31T11:59:17;35.10;31.60
78775;DHT22;68119;43.398;3.676;2023-08-31T12:01:54;34.50;33.20
78775;DHT22;68119;43.398;3.676;2023-08-31T12:04:24;36.70;31.50
78775;DHT22;68119;43.398;3.676;2023-08-31T12:07:00;35.10;31.60
78775;DHT22;68119;43.398;3.676;2023-08-31T12:09:36;33.80;32.90
78775;DHT22;68119;43.398;3.676;2023-08-31T12:12:08;34.80;32.20
78775;DHT22;68119;43.398;3.676;2023-08-31T12:14:40;34.20;32.50
78775;DHT22;68119;43.398;3.676;2023-08-31T12:17:08;33.40;33.00
78775;DHT22;68119;43.398;3.676;2023-08-31T12:19:40;32.80;34.20
78775;DHT22;68119;43.398;3.676;2023-08-31T12:22:14;34.30;32.80
78775;DHT22;68119;43.398;3.676;2023-08-31T12:24:44;34.10;34.10
78775;DHT22;68119;43.398;3.676;2023-08-31T12:27:19;33.10;34.50
78775;DHT22;68119;43.398;3.676;2023-08-31T12:29:45;32.20;36.30
78775;DHT22;68119;43.398;3.676;2023-08-31T12:32:12;34.00;35.20
78775;DHT22;68119;43.398;3.676;2023-08-31T12:34:43;34.20;34.50
78775;DHT22;68119;43.398;3.676;2023-08-31T12:37:14;34.40;33.70
78775;DHT22;68119;43.398;3.676;2023-08-31T12:39:43;33.10;35.00
78775;DHT22;68119;43.398;3.676;2023-08-31T12:42:11;33.90;33.70
78775;DHT22;68119;43.398;3.676;2023-08-31T12:44:40;34.30;33.50
78775;DHT22;68119;43.398;3.676;2023-08-31T12:47:08;34.30;33.50
78775;DHT22;68119;43.398;3.676;2023-08-31T12:49:42;33.70;34.10
78775;DHT22;68119;43.398;3.676;2023-08-31T12:52:08;34.50;32.60
78775;DHT22;68119;43.398;3.676;2023-08-31T12:54:42;34.40;33.30
78775;DHT22;68119;43.398;3.676;2023-08-31T12:57:10;33.90;33.80
78775;DHT22;68119;43.398;3.676;2023-08-31T12:59:45;32.60;35.30
78775;DHT22;68119;43.398;3.676;2023-08-31T13:02:15;32.20;36.60
78775;DHT22;68119;43.398;3.676;2023-08-31T13:04:45;33.00;35.40
78775;DHT22;68119;43.398;3.676;2023-08-31T13:07:11;33.70;34.70
78775;DHT22;68119;43.398;3.676;2023-08-31T13:09:40;33.00;35.60
78775;DHT22;68119;43.398;3.676;2023-08-31T13:12:10;33.90;34.70
78775;DHT22;68119;43.398;3.676;2023-08-31T13:14:38;34.80;33.90
78775;DHT22;68119;43.398;3.676;2023-08-31T13:17:06;34.50;34.60
78775;DHT22;68119;43.398;3.676;2023-08-31T13:19:35;34.20;34.90
78775;DHT22;68119;43.398;3.676;2023-08-31T13:22:00;34.20;36.20
78775;DHT22;68119;43.398;3.676;2023-08-31T13:24:28;36.10;35.40
78775;DHT22;68119;43.398;3.676;2023-08-31T13:26:57;38.90;33.20
78775;DHT22;68119;43.398;3.676;2023-08-31T13:29:26;36.70;34.20
78775;DHT22;68119;43.398;3.676;2023-08-31T13:31:59;36.80;34.40
78775;DHT22;68119;43.398;3.676;2023-08-31T13:34:36;36.90;34.40
78775;DHT22;68119;43.398;3.676;2023-08-31T13:37:04;34.60;35.60
78775;DHT22;68119;43.398;3.676;2023-08-31T13:39:34;33.60;36.80
78775;DHT22;68119;43.398;3.676;2023-08-31T13:42:02;34.60;36.30
78775;DHT22;68119;43.398;3.676;2023-08-31T13:44:34;34.00;36.10
78775;DHT22;68119;43.398;3.676;2023-08-31T13:47:01;30.90;39.80
78775;DHT22;68119;43.398;3.676;2023-08-31T13:49:34;31.40;40.00
78775;DHT22;68119;43.398;3.676;2023-08-31T13:52:00;29.90;42.10
78775;DHT22;68119;43.398;3.676;2023-08-31T13:54:26;30.20;41.50
78775;DHT22;68119;43.398;3.676;2023-08-31T13:56:55;31.60;40.10
78775;DHT22;68119;43.398;3.676;2023-08-31T13:59:22;32.00;38.80
78775;DHT22;68119;43.398;3.676;2023-08-31T14:01:55;32.40;39.40
78775;DHT22;68119;43.398;3.676;2023-08-31T14:04:26;33.30;38.00
78775;DHT22;68119;43.398;3.676;2023-08-31T14:06:57;35.90;35.00
78775;DHT22;68119;43.398;3.676;2023-08-31T14:09:27;33.90;36.30
78775;DHT22;68119;43.398;3.676;2023-08-31T14:11:55;33.20;37.10
78775;DHT22;68119;43.398;3.676;2023-08-31T14:14:24;31.90;37.70
78775;DHT22;68119;43.398;3.676;2023-08-31T14:16:50;31.30;37.70
78775;DHT22;68119;43.398;3.676;2023-08-31T14:19:18;31.40;38.30
78775;DHT22;68119;43.398;3.676;2023-08-31T14:21:48;32.00;40.00
78775;DHT22;68119;43.398;3.676;2023-08-31T14:24:16;32.30;40.60
78775;DHT22;68119;43.398;3.676;2023-08-31T14:26:47;29.90;41.90
78775;DHT22;68119;43.398;3.676;2023-08-31T14:29:15;29.90;41.80
78775;DHT22;68119;43.398;3.676;2023-08-31T14:31:46;30.70;40.40
78775;DHT22;68119;43.398;3.676;2023-08-31T14:34:18;29.60;42.00
78775;DHT22;68119;43.398;3.676;2023-08-31T14:36:48;29.10;42.90
78775;DHT22;68119;43.398;3.676;2023-08-31T14:39:22;29.40;43.30
78775;DHT22;68119;43.398;3.676;2023-08-31T14:41:52;28.50;44.40
78775;DHT22;68119;43.398;3.676;2023-08-31T14:44:24;27.80;45.70
78775;DHT22;68119;43.398;3.676;2023-08-31T14:46:55;27.90;45.60
78775;DHT22;68119;43.398;3.676;2023-08-31T14:49:24;29.20;43.40
78775;DHT22;68119;43.398;3.676;2023-08-31T14:51:50;27.90;44.60
78775;DHT22;68119;43.398;3.676;2023-08-31T14:54:19;27.00;45.00
78775;DHT22;68119;43.398;3.676;2023-08-31T14:56:51;26.60;45.80
78775;DHT22;68119;43.398;3.676;2023-08-31T14:59:23;26.60;45.10
78775;DHT22;68119;43.398;3.676;2023-08-31T15:01:51;26.70;43.30
78775;DHT22;68119;43.398;3.676;2023-08-31T15:04:20;27.00;42.60
78775;DHT22;68119;43.398;3.676;2023-08-31T15:06:46;26.10;42.70
78775;DHT22;68119;43.398;3.676;2023-08-31T15:09:12;26.10;43.40
78775;DHT22;68119;43.398;3.676;2023-08-31T15:11:37;26.40;43.70
78775;DHT22;68119;43.398;3.676;2023-08-31T15:14:07;26.20;43.80
78775;DHT22;68119;43.398;3.676;2023-08-31T15:16:37;26.00;44.20
78775;DHT22;68119;43.398;3.676;2023-08-31T15:19:06;26.10;44.70
78775;DHT22;68119;43.398;3.676;2023-08-31T15:21:34;25.80;46.00
78775;DHT22;68119;43.398;3.676;2023-08-31T15:24:05;26.00;45.10
78775;DHT22;68119;43.398;3.676;2023-08-31T15:26:33;25.90;45.50
78775;DHT22;68119;43.398;3.676;2023-08-31T15:29:02;25.60;48.80
78775;DHT22;68119;43.398;3.676;2023-08-31T15:31:30;25.80;50.00
78775;DHT22;68119;43.398;3.676;2023-08-31T15:33:59;26.00;50.90
78775;DHT22;68119;43.398;3.676;2023-08-31T15:36:36;27.00;50.10
78775;DHT22;68119;43.398;3.676;2023-08-31T15:39:04;27.40;49.00
78775;DHT22;68119;43.398;3.676;2023-08-31T15:41:35;27.00;50.40
78775;DHT22;68119;43.398;3.676;2023-08-31T15:44:07;28.10;48.90
78775;DHT22;68119;43.398;3.676;2023-08-31T15:46:38;26.50;50.50
78775;DHT22;68119;43.398;3.676;2023-08-31T15:49:06;26.00;50.10
78775;DHT22;68119;43.398;3.676;2023-08-31T15:51:37;25.50;50.30
78775;DHT22;68119;43.398;3.676;2023-08-31T15:54:05;25.00;52.30
78775;DHT22;68119;43.398;3.676;2023-08-31T15:56:32;24.70;52.90
78775;DHT22;68119;43.398;3.676;2023-08-31T15:59:01;25.00;51.20
78775;DHT22;68119;43.398;3.676;2023-08-31T16:01:32;25.60;49.50
78775;DHT22;68119;43.398;3.676;2023-08-31T16:04:07;25.30;50.10
78775;DHT22;68119;43.398;3.676;2023-08-31T16:06:37;25.80;50.30
78775;DHT22;68119;43.398;3.676;2023-08-31T16:09:04;26.60;49.30
78775;DHT22;68119;43.398;3.676;2023-08-31T16:11:33;27.00;48.50
78775;DHT22;68119;43.398;3.676;2023-08-31T16:14:04;26.80;49.10
78775;DHT22;68119;43.398;3.676;2023-08-31T16:16:30;26.70;50.30
78775;DHT22;68119;43.398;3.676;2023-08-31T16:18:59;26.70;49.80
78775;DHT22;68119;43.398;3.676;2023-08-31T16:21:25;27.10;49.70
78775;DHT22;68119;43.398;3.676;2023-08-31T16:23:56;26.70;50.50
78775;DHT22;68119;43.398;3.676;2023-08-31T16:26:25;25.70;51.10
78775;DHT22;68119;43.398;3.676;2023-08-31T16:28:56;26.20;48.70
78775;DHT22;68119;43.398;3.676;2023-08-31T16:31:24;26.80;48.30
78775;DHT22;68119;43.398;3.676;2023-08-31T16:33:52;25.50;49.90
78775;DHT22;68119;43.398;3.676;2023-08-31T16:36:25;25.00;50.10
78775;DHT22;68119;43.398;3.676;2023-08-31T16:38:51;24.40;51.80
78775;DHT22;68119;43.398;3.676;2023-08-31T16:41:22;23.90;53.90
78775;DHT22;68119;43.398;3.676;2023-08-31T16:43:54;24.20;54.00
78775;DHT22;68119;43.398;3.676;2023-08-31T16:46:24;24.70;53.60
78775;DHT22;68119;43.398;3.676;2023-08-31T16:48:50;25.00;52.70
78775;DHT22;68119;43.398;3.676;2023-08-31T16:51:19;24.20;54.40
78775;DHT22;68119;43.398;3.676;2023-08-31T16:53:49;23.40;55.70
78775;DHT22;68119;43.398;3.676;2023-08-31T16:56:21;22.90;56.60
78775;DHT22;68119;43.398;3.676;2023-08-31T16:58:50;22.30;58.40
78775;DHT22;68119;43.398;3.676;2023-08-31T17:01:18;22.50;58.70
78775;DHT22;68119;43.398;3.676;2023-08-31T17:03:52;22.80;57.90
78775;DHT22;68119;43.398;3.676;2023-08-31T17:06:20;22.40;58.50
78775;DHT22;68119;43.398;3.676;2023-08-31T17:08:53;22.80;57.50
78775;DHT22;68119;43.398;3.676;2023-08-31T17:11:22;22.50;57.10
78775;DHT22;68119;43.398;3.676;2023-08-31T17:13:48;22.80;56.60
78775;DHT22;68119;43.398;3.676;2023-08-31T17:16:20;22.50;56.90
78775;DHT22;68119;43.398;3.676;2023-08-31T17:18:48;22.30;57.50
78775;DHT22;68119;43.398;3.676;2023-08-31T17:21:20;22.70;57.80
78775;DHT22;68119;43.398;3.676;2023-08-31T17:23:51;22.30;58.70
78775;DHT22;68119;43.398;3.676;2023-08-31T17:26:28;21.90;59.70
78775;DHT22;68119;43.398;3.676;2023-08-31T17:28:59;22.20;60.30
78775;DHT22;68119;43.398;3.676;2023-08-31T17:31:25;22.60;59.70
78775;DHT22;68119;43.398;3.676;2023-08-31T17:33:51;22.80;60.10
78775;DHT22;68119;43.398;3.676;2023-08-31T17:36:23;22.50;61.50
78775;DHT22;68119;43.398;3.676;2023-08-31T17:38:54;21.70;63.90
78775;DHT22;68119;43.398;3.676;2023-08-31T17:41:26;21.90;63.90
78775;DHT22;68119;43.398;3.676;2023-08-31T17:43:55;21.70;64.70
78775;DHT22;68119;43.398;3.676;2023-08-31T17:46:26;21.50;65.20
78775;DHT22;68119;43.398;3.676;2023-08-31T17:48:55;21.60;64.90
78775;DHT22;68119;43.398;3.676;2023-08-31T17:51:22;21.70;64.50
78775;DHT22;68119;43.398;3.676;2023-08-31T17:53:51;21.90;64.10
78775;DHT22;68119;43.398;3.676;2023-08-31T17:56:26;21.90;64.00
78775;DHT22;68119;43.398;3.676;2023-08-31T17:58:57;21.70;64.30
78775;DHT22;68119;43.398;3.676;2023-08-31T18:01:25;21.50;64.80
78775;DHT22;68119;43.398;3.676;2023-08-31T18:03:56;21.30;65.30
78775;DHT22;68119;43.398;3.676;2023-08-31T18:06:25;21.10;65.90
78775;DHT22;68119;43.398;3.676;2023-08-31T18:08:59;20.90;66.60
78775;DHT22;68119;43.398;3.676;2023-08-31T18:11:33;20.70;66.30
78775;DHT22;68119;43.398;3.676;2023-08-31T18:14:04;20.60;66.80
78775;DHT22;68119;43.398;3.676;2023-08-31T18:16:41;20.50;67.80
78775;DHT22;68119;43.398;3.676;2023-08-31T18:19:09;20.40;68.30
78775;DHT22;68119;43.398;3.676;2023-08-31T18:21:35;20.20;68.90
78775;DHT22;68119;43.398;3.676;2023-08-31T18:24:01;20.20;68.60
78775;DHT22;68119;43.398;3.676;2023-08-31T18:26:35;20.20;68.70
78775;DHT22;68119;43.398;3.676;2023-08-31T18:29:09;20.30;68.70
78775;DHT22;68119;43.398;3.676;2023-08-31T18:31:40;20.20;68.60
78775;DHT22;68119;43.398;3.676;2023-08-31T18:34:09;20.30;68.90
78775;DHT22;68119;43.398;3.676;2023-08-31T18:36:35;20.30;68.80
78775;DHT22;68119;43.398;3.676;2023-08-31T18:39:05;20.10;69.40
78775;DHT22;68119;43.398;3.676;2023-08-31T18:41:33;20.30;70.60
78775;DHT22;68119;43.398;3.676;2023-08-31T18:44:05;20.30;70.50
78775;DHT22;68119;43.398;3.676;2023-08-31T18:46:37;20.10;71.00
78775;DHT22;68119;43.398;3.676;2023-08-31T18:49:06;20.00;71.50
78775;DHT22;68119;43.398;3.676;2023-08-31T18:51:36;20.00;71.70
78775;DHT22;68119;43.398;3.676;2023-08-31T18:54:11;20.00;72.10
78775;DHT22;68119;43.398;3.676;2023-08-31T18:56:41;20.00;71.70
78775;DHT22;68119;43.398;3.676;2023-08-31T18:59:09;20.00;71.60
78775;DHT22;68119;43.398;3.676;2023-08-31T19:01:41;20.00;71.80
78775;DHT22;68119;43.398;3.676;2023-08-31T19:04:09;20.00;71.70
78775;DHT22;68119;43.398;3.676;2023-08-31T19:06:41;20.00;72.20
78775;DHT22;68119;43.398;3.676;2023-08-31T19:09:09;20.10;72.60
78775;DHT22;68119;43.398;3.676;2023-08-31T19:11:37;20.10;72.40
78775;DHT22;68119;43.398;3.676;2023-08-31T19:14:03;20.10;72.30
78775;DHT22;68119;43.398;3.676;2023-08-31T19:16:34;20.10;72.60
78775;DHT22;68119;43.398;3.676;2023-08-31T19:19:05;20.20;72.50
78775;DHT22;68119;43.398;3.676;2023-08-31T19:21:31;20.20;72.70
78775;DHT22;68119;43.398;3.676;2023-08-31T19:24:00;20.30;72.80
78775;DHT22;68119;43.398;3.676;2023-08-31T19:26:29;20.20;73.20
78775;DHT22;68119;43.398;3.676;2023-08-31T19:29:02;20.30;73.60
78775;DHT22;68119;43.398;3.676;2023-08-31T19:31:33;20.20;74.10
78775;DHT22;68119;43.398;3.676;2023-08-31T19:34:02;20.30;74.30
78775;DHT22;68119;43.398;3.676;2023-08-31T19:36:28;20.30;74.50
78775;DHT22;68119;43.398;3.676;2023-08-31T19:38:54;20.30;74.70
78775;DHT22;68119;43.398;3.676;2023-08-31T19:41:20;20.30;74.70
78775;DHT22;68119;43.398;3.676;2023-08-31T19:43:51;20.30;74.70
78775;DHT22;68119;43.398;3.676;2023-08-31T19:46:22;20.30;75.10
78775;DHT22;68119;43.398;3.676;2023-08-31T19:48:51;20.20;75.20
78775;DHT22;68119;43.398;3.676;2023-08-31T19:51:22;20.20;75.90
78775;DHT22;68119;43.398;3.676;2023-08-31T19:53:53;20.20;76.30
78775;DHT22;68119;43.398;3.676;2023-08-31T19:56:19;20.30;76.10
78775;DHT22;68119;43.398;3.676;2023-08-31T19:58:56;20.30;76.50
78775;DHT22;68119;43.398;3.676;2023-08-31T20:01:27;20.30;76.70
78775;DHT22;68119;43.398;3.676;2023-08-31T20:03:55;20.30;77.00
78775;DHT22;68119;43.398;3.676;2023-08-31T20:06:24;20.30;77.10
78775;DHT22;68119;43.398;3.676;2023-08-31T20:08:56;20.30;77.40
78775;DHT22;68119;43.398;3.676;2023-08-31T20:11:27;20.20;77.20
78775;DHT22;68119;43.398;3.676;2023-08-31T20:13:53;20.30;77.30
78775;DHT22;68119;43.398;3.676;2023-08-31T20:16:23;20.30;78.00
78775;DHT22;68119;43.398;3.676;2023-08-31T20:18:53;20.30;78.00
78775;DHT22;68119;43.398;3.676;2023-08-31T20:21:23;20.30;78.10
78775;DHT22;68119;43.398;3.676;2023-08-31T20:23:49;20.30;78.40
78775;DHT22;68119;43.398;3.676;2023-08-31T20:26:26;20.30;78.60
78775;DHT22;68119;43.398;3.676;2023-08-31T20:28:55;20.30;78.70
78775;DHT22;68119;43.398;3.676;2023-08-31T20:31:24;20.20;78.70
78775;DHT22;68119;43.398;3.676;2023-08-31T20:33:52;20.20;78.60
78775;DHT22;68119;43.398;3.676;2023-08-31T20:36:29;20.10;78.90
78775;DHT22;68119;43.398;3.676;2023-08-31T20:38:57;20.20;79.20
78775;DHT22;68119;43.398;3.676;2023-08-31T20:41:27;20.20;79.20
78775;DHT22;68119;43.398;3.676;2023-08-31T20:43:55;20.20;78.90
78775;DHT22;68119;43.398;3.676;2023-08-31T20:46:31;20.10;79.20
78775;DHT22;68119;43.398;3.676;2023-08-31T20:49:00;20.10;79.30
78775;DHT22;68119;43.398;3.676;2023-08-31T20:51:33;20.10;79.60
78775;DHT22;68119;43.398;3.676;2023-08-31T20:54:01;20.10;80.00
78775;DHT22;68119;43.398;3.676;2023-08-31T20:56:31;20.00;79.50
78775;DHT22;68119;43.398;3.676;2023-08-31T20:58:59;20.00;79.80
78775;DHT22;68119;43.398;3.676;2023-08-31T21:01:34;20.00;80.00
78775;DHT22;68119;43.398;3.676;2023-08-31T21:04:02;20.00;80.00
78775;DHT22;68119;43.398;3.676;2023-08-31T21:06:31;20.00;79.70
78775;DHT22;68119;43.398;3.676;2023-08-31T21:09:02;20.00;79.80
78775;DHT22;68119;43.398;3.676;2023-08-31T21:11:33;20.00;80.00
78775;DHT22;68119;43.398;3.676;2023-08-31T21:14:04;19.90;80.10
78775;DHT22;68119;43.398;3.676;2023-08-31T21:16:33;19.80;80.20
78775;DHT22;68119;43.398;3.676;2023-08-31T21:19:02;19.80;80.50
78775;DHT22;68119;43.398;3.676;2023-08-31T21:21:34;19.70;80.70
78775;DHT22;68119;43.398;3.676;2023-08-31T21:24:01;19.80;80.60
78775;DHT22;68119;43.398;3.676;2023-08-31T21:26:30;19.70;80.40
78775;DHT22;68119;43.398;3.676;2023-08-31T21:28:58;19.70;80.50
78775;DHT22;68119;43.398;3.676;2023-08-31T21:31:29;19.70;80.50
78775;DHT22;68119;43.398;3.676;2023-08-31T21:34:00;19.70;80.50
78775;DHT22;68119;43.398;3.676;2023-08-31T21:36:32;19.60;80.50
78775;DHT22;68119;43.398;3.676;2023-08-31T21:39:06;19.70;80.00
78775;DHT22;68119;43.398;3.676;2023-08-31T21:41:37;19.60;79.60
78775;DHT22;68119;43.398;3.676;2023-08-31T21:44:08;19.70;79.40
78775;DHT22;68119;43.398;3.676;2023-08-31T21:46:37;19.70;79.30
78775;DHT22;68119;43.398;3.676;2023-08-31T21:49:11;19.60;79.50
78775;DHT22;68119;43.398;3.676;2023-08-31T21:51:37;19.60;79.40
78775;DHT22;68119;43.398;3.676;2023-08-31T21:54:07;19.50;79.40
78775;DHT22;68119;43.398;3.676;2023-08-31T21:56:33;19.50;79.40
78775;DHT22;68119;43.398;3.676;2023-08-31T21:59:07;19.50;79.70
78775;DHT22;68119;43.398;3.676;2023-08-31T22:01:38;19.40;79.90
78775;DHT22;68119;43.398;3.676;2023-08-31T22:04:04;19.30;80.10
78775;DHT22;68119;43.398;3.676;2023-08-31T22:06:35;19.20;80.40
78775;DHT22;68119;43.398;3.676;2023-08-31T22:09:04;19.20;80.50
78775;DHT22;68119;43.398;3.676;2023-08-31T22:11:35;19.20;80.60
78775;DHT22;68119;43.398;3.676;2023-08-31T22:14:01;19.10;80.50
78775;DHT22;68119;43.398;3.676;2023-08-31T22:16:35;19.10;80.60
78775;DHT22;68119;43.398;3.676;2023-08-31T22:19:04;19.10;80.60
78775;DHT22;68119;43.398;3.676;2023-08-31T22:21:32;19.10;80.40
78775;DHT22;68119;43.398;3.676;2023-08-31T22:24:00;19.10;80.40
78775;DHT22;68119;43.398;3.676;2023-08-31T22:26:32;19.10;80.30
78775;DHT22;68119;43.398;3.676;2023-08-31T22:29:01;19.00;80.00
78775;DHT22;68119;43.398;3.676;2023-08-31T22:31:30;19.00;79.50
78775;DHT22;68119;43.398;3.676;2023-08-31T22:34:01;18.90;78.70
78775;DHT22;68119;43.398;3.676;2023-08-31T22:36:28;18.90;77.70
78775;DHT22;68119;43.398;3.676;2023-08-31T22:38:59;18.80;76.70
78775;DHT22;68119;43.398;3.676;2023-08-31T22:41:31;18.80;75.60
78775;DHT22;68119;43.398;3.676;2023-08-31T22:43:59;18.80;73.40
78775;DHT22;68119;43.398;3.676;2023-08-31T22:46:30;18.80;72.30
78775;DHT22;68119;43.398;3.676;2023-08-31T22:48:58;18.80;71.60
78775;DHT22;68119;43.398;3.676;2023-08-31T22:51:25;18.90;70.40
78775;DHT22;68119;43.398;3.676;2023-08-31T22:53:53;19.00;69.60
78775;DHT22;68119;43.398;3.676;2023-08-31T22:56:22;19.00;69.20
78775;DHT22;68119;43.398;3.676;2023-08-31T22:58:52;19.00;69.20
78775;DHT22;68119;43.398;3.676;2023-08-31T23:01:21;18.90;69.30
78775;DHT22;68119;43.398;3.676;2023-08-31T23:03:49;18.90;69.50
78775;DHT22;68119;43.398;3.676;2023-08-31T23:06:17;18.80;69.70
78775;DHT22;68119;43.398;3.676;2023-08-31T23:08:48;18.70;69.70
78775;DHT22;68119;43.398;3.676;2023-08-31T23:11:19;18.70;69.80
78775;DHT22;68119;43.398;3.676;2023-08-31T23:13:50;18.60;69.80
78775;DHT22;68119;43.398;3.676;2023-08-31T23:16:19;18.70;69.50
78775;DHT22;68119;43.398;3.676;2023-08-31T23:18:47;18.70;69.30
78775;DHT22;68119;43.398;3.676;2023-08-31T23:21:17;18.70;69.20
78775;DHT22;68119;43.398;3.676;2023-08-31T23:23:43;18.70;69.20
78775;DHT22;68119;43.398;3.676;2023-08-31T23:26:11;18.80;69.10
78775;DHT22;68119;43.398;3.676;2023-08-31T23:28:43;18.80;69.00
78775;DHT22;68119;43.398;3.676;2023-08-31T23:31:14;18.70;68.60
78775;DHT22;68119;43.398;3.676;2023-08-31T23:33:47;18.70;68.50
78775;DHT22;68119;43.398;3.676;2023-08-31T23:36:12;18.70;68.30
78775;DHT22;68119;43.398;3.676;2023-08-31T23:38:46;18.70;68.30
78775;DHT22;68119;43.398;3.676;2023-08-31T23:41:17;18.70;68.10
78775;DHT22;68119;43.398;3.676;2023-08-31T23:43:43;18.70;68.20
78775;DHT22;68119;43.398;3.676;2023-08-31T23:46:16;18.70;67.80
78775;DHT22;68119;43.398;3.676;2023-08-31T23:48:45;18.70;67.70
78775;DHT22;68119;43.398;3.676;2023-08-31T23:51:14;18.60;67.60
78775;DHT22;68119;43.398;3.676;2023-08-31T23:53:42;18.60;67.70
78775;DHT22;68119;43.398;3.676;2023-08-31T23:56:14;18.60;67.80
78775;DHT22;68119;43.398;3.676;2023-08-31T23:58:42;18.60;67.50
